Time;durP1;ratioP1;P1;durP2;ratioP2;P2;SDS_P1;SDS_P2;PMS_P1;PMS_P2;Temp;Humidity;BMP_temperature;BMP_pressure;BME280_temperature;BME280_humidity;BME280_pressure;Samples;Min_cycle;Max_cycle;Signal;HPM_P1;HPM_P2
2023/03/30 00:01:18;;;;;;;7.00;2.60;;;;;;;13.49;62.16;100523.72;5066027;28;20064;-65
2023/03/30 00:03:45;;;;;;;5.70;2.58;;;;;;;13.51;61.82;100510.31;5066242;28;20627;-65
2023/03/30 00:06:19;;;;;;;4.93;2.80;;;;;;;13.51;61.64;100513.94;5072950;28;20028;-66
2023/03/30 00:08:45;;;;;;;4.28;2.63;;;;;;;13.55;61.32;100513.38;5088622;28;20031;-65
2023/03/30 00:11:14;;;;;;;7.37;2.70;;;;;;;13.54;61.46;100509.75;5035428;28;1057432;-65
2023/03/30 00:13:43;;;;;;;6.68;2.70;;;;;;;13.55;61.03;100502.22;5072071;28;20128;-65
2023/03/30 00:16:11;;;;;;;6.65;2.78;;;;;;;13.55;61.46;100499.44;5070471;28;20032;-65
2023/03/30 00:18:38;;;;;;;7.00;2.97;;;;;;;13.53;61.84;100491.34;5068642;28;20040;-66
2023/03/30 00:21:06;;;;;;;6.50;2.45;;;;;;;13.51;61.70;100494.41;5068289;28;20031;-65
2023/03/30 00:23:31;;;;;;;4.30;2.50;;;;;;;13.51;62.03;100502.78;5068414;28;20136;-65
2023/03/30 00:25:57;;;;;;;7.38;3.00;;;;;;;13.50;61.98;100489.13;5081297;28;20505;-66
2023/03/30 00:28:24;;;;;;;6.05;2.67;;;;;;;13.50;61.58;100489.13;5087609;28;20024;-66
2023/03/30 00:30:51;;;;;;;7.82;3.20;;;;;;;13.50;62.15;100489.97;5087441;28;20035;-66
2023/03/30 00:33:16;;;;;;;7.10;2.75;;;;;;;13.50;61.64;100498.31;5069241;28;20041;-65
2023/03/30 00:35:42;;;;;;;6.88;2.75;;;;;;;13.50;61.73;100486.34;5079322;28;20040;-65
2023/03/30 00:38:07;;;;;;;7.10;2.70;;;;;;;13.49;61.15;100479.94;5063473;28;20391;-65
2023/03/30 00:40:33;;;;;;;9.50;2.58;;;;;;;13.49;61.67;100470.75;5049007;28;20128;-65
2023/03/30 00:43:10;;;;;;;4.63;2.45;;;;;;;13.47;61.47;100465.44;5049332;28;20032;-65
2023/03/30 00:45:36;;;;;;;4.07;2.00;;;;;;;13.47;61.25;100472.97;5048250;28;20033;-66
2023/03/30 00:48:06;;;;;;;4.57;2.88;;;;;;;13.47;61.41;100467.38;5063429;28;20687;-66
2023/03/30 00:50:37;;;;;;;5.20;2.65;;;;;;;13.47;61.37;100447.88;5088002;28;20149;-65
2023/03/30 00:53:09;;;;;;;7.53;2.33;;;;;;;13.46;60.93;100449.00;5048584;28;20025;-65
2023/03/30 00:55:37;;;;;;;7.57;2.88;;;;;;;13.44;61.18;100449.28;5064759;28;20071;-65
2023/03/30 00:58:03;;;;;;;4.38;2.70;;;;;;;13.45;61.17;100441.75;5084063;28;20089;-66
2023/03/30 01:00:28;;;;;;;7.97;2.83;;;;;;;13.46;61.61;100433.09;5088811;28;20032;-65
2023/03/30 01:02:59;;;;;;;7.00;2.83;;;;;;;13.44;61.79;100434.47;5089634;28;20448;-65
2023/03/30 01:05:27;;;;;;;5.30;2.40;;;;;;;13.42;61.64;100437.56;5089067;28;20080;-66
2023/03/30 01:07:53;;;;;;;5.85;2.75;;;;;;;13.44;61.40;100440.06;5088437;28;20487;-65
2023/03/30 01:10:19;;;;;;;4.05;2.33;;;;;;;13.44;61.51;100429.78;5089322;28;20154;-66
2023/03/30 01:12:45;;;;;;;4.80;2.05;;;;;;;13.45;61.92;100430.59;5069632;28;20055;-65
2023/03/30 01:15:11;;;;;;;6.78;2.60;;;;;;;13.44;61.53;100432.56;5058328;28;20029;-66
2023/03/30 01:17:47;;;;;;;6.53;2.40;;;;;;;13.44;62.01;100440.91;5053188;28;20045;-65
2023/03/30 01:20:39;;;;;;;3.70;2.22;;;;;;;13.45;62.09;100442.59;5055279;28;20029;-67
2023/03/30 01:23:11;;;;;;;4.07;2.30;;;;;;;13.45;61.93;100448.16;5057162;28;20029;-66
2023/03/30 01:25:43;;;;;;;8.68;2.58;;;;;;;13.44;61.91;100435.34;5058472;28;20060;-66
2023/03/30 01:28:19;;;;;;;7.50;2.95;;;;;;;13.42;62.12;100432.00;5082910;28;20029;-66
2023/03/30 01:30:54;;;;;;;7.38;2.67;;;;;;;13.42;62.40;100433.94;5071769;28;20039;-66
2023/03/30 01:33:38;;;;;;;7.45;2.38;;;;;;;13.42;62.76;100443.13;5072240;28;20085;-65
2023/03/30 01:36:40;;;;;;;4.18;2.15;;;;;;;13.42;62.57;100443.13;5078204;28;20077;-65
2023/03/30 01:39:32;;;;;;;5.68;2.42;;;;;;;13.41;62.26;100433.13;5081682;28;20041;-65
2023/03/30 01:42:06;;;;;;;5.40;2.25;;;;;;;13.42;62.40;100431.16;5069329;28;20033;-65
2023/03/30 01:44:42;;;;;;;6.70;2.50;;;;;;;13.42;61.83;100429.19;5068216;28;20051;-66
2023/03/30 01:47:21;;;;;;;5.25;2.30;;;;;;;13.45;62.08;100419.44;5075613;28;20048;-65
2023/03/30 01:49:49;;;;;;;3.53;2.28;;;;;;;13.45;61.98;100411.91;5057945;28;20040;-65
2023/03/30 01:52:23;;;;;;;3.63;2.00;;;;;;;13.46;61.69;100408.00;5063378;28;20369;-65
2023/03/30 01:54:57;;;;;;;7.00;2.15;;;;;;;13.46;61.71;100413.56;5069256;28;20037;-67
2023/03/30 01:57:42;;;;;;;7.30;2.60;;;;;;;13.47;62.11;100431.13;5069985;28;20033;-65
2023/03/30 02:00:14;;;;;;;5.82;2.10;;;;;;;13.48;61.38;100439.25;5056556;28;20029;-65
2023/03/30 02:02:45;;;;;;;3.65;2.15;;;;;;;13.48;61.40;100436.44;5081237;28;20480;-66
2023/03/30 02:05:14;;;;;;;6.18;2.33;;;;;;;13.50;61.73;100434.19;5081589;28;20024;-66
2023/03/30 02:07:42;;;;;;;5.88;2.30;;;;;;;13.50;61.53;100431.41;5059249;28;20037;-66
2023/03/30 02:10:10;;;;;;;7.13;2.10;;;;;;;13.53;61.89;100443.13;5050990;28;20024;-65
2023/03/30 02:12:37;;;;;;;5.18;2.45;;;;;;;13.50;61.80;100434.19;5058911;28;20052;-65
2023/03/30 02:15:09;;;;;;;6.22;2.83;;;;;;;13.51;62.06;100432.25;5052033;28;20032;-64
2023/03/30 02:17:36;;;;;;;6.20;2.13;;;;;;;13.54;61.89;100436.44;5075798;28;20115;-66
2023/03/30 02:20:05;;;;;;;8.68;2.67;;;;;;;13.53;61.94;100437.56;5055673;28;20040;-65
2023/03/30 02:22:31;;;;;;;5.00;2.13;;;;;;;13.51;61.58;100419.13;5066475;28;20138;-65
2023/03/30 02:24:57;;;;;;;4.90;2.20;;;;;;;13.54;62.13;100422.47;5069712;28;20059;-65
2023/03/30 02:27:24;;;;;;;4.97;2.70;;;;;;;13.51;62.04;100421.91;5064085;28;20111;-66
2023/03/30 02:29:49;;;;;;;7.70;2.35;;;;;;;13.54;61.96;100419.69;5052802;28;20032;-66
2023/03/30 02:32:27;;;;;;;5.80;2.08;;;;;;;13.55;62.17;100432.50;5066274;28;20502;-66
2023/03/30 02:35:23;;;;;;;7.13;2.35;;;;;;;13.55;62.30;100429.72;5064730;28;20040;-65
2023/03/30 02:37:52;;;;;;;3.90;2.22;;;;;;;13.55;62.24;100421.34;5063796;28;20036;-66
2023/03/30 02:40:52;;;;;;;5.55;2.50;;;;;;;13.56;62.28;100431.38;5058098;28;20388;-65
2023/03/30 02:43:40;;;;;;;6.60;2.38;;;;;;;13.57;61.97;100425.53;5070347;28;20029;-65
2023/03/30 02:46:13;;;;;;;6.47;2.58;;;;;;;13.56;62.11;100428.59;5071158;28;20476;-65
2023/03/30 02:48:43;;;;;;;6.43;2.25;;;;;;;13.54;61.80;100422.47;5067367;28;20403;-66
2023/03/30 02:51:19;;;;;;;5.57;2.35;;;;;;;13.54;61.85;100422.47;5068762;28;20073;-66
2023/03/30 02:54:08;;;;;;;5.13;2.22;;;;;;;13.56;62.05;100415.53;5068171;28;20139;-65
2023/03/30 02:56:55;;;;;;;4.75;2.65;;;;;;;13.58;62.41;100423.59;5050379;28;20362;-65
2023/03/30 02:59:29;;;;;;;7.32;2.15;;;;;;;13.56;61.82;100415.53;5055833;28;20031;-65
2023/03/30 03:02:03;;;;;;;6.05;2.40;;;;;;;13.57;61.87;100414.38;5067616;28;20864;-66
2023/03/30 03:04:33;;;;;;;4.50;1.90;;;;;;;13.58;61.27;100412.44;5067288;28;20028;-66
2023/03/30 03:07:01;;;;;;;5.47;2.28;;;;;;;13.57;61.70;100406.03;5062589;28;20043;-65
2023/03/30 03:09:27;;;;;;;5.65;2.15;;;;;;;13.56;61.89;100397.94;5071046;28;20055;-66
2023/03/30 03:11:53;;;;;;;5.15;2.00;;;;;;;13.55;62.00;100408.25;5068934;28;20090;-67
2023/03/30 03:14:19;;;;;;;3.50;2.25;;;;;;;13.57;61.77;100408.81;5063017;28;20431;-65
2023/03/30 03:16:45;;;;;;;4.65;2.17;;;;;;;13.59;61.63;100408.50;5080362;28;20078;-66
2023/03/30 03:19:10;;;;;;;4.95;2.15;;;;;;;13.59;61.90;100408.50;5089442;28;20052;-64
2023/03/30 03:21:36;;;;;;;4.13;2.13;;;;;;;13.62;61.83;100407.97;5090284;28;20082;-65
2023/03/30 03:24:02;;;;;;;8.40;2.33;;;;;;;13.59;61.95;100414.94;5088692;28;20047;-65
2023/03/30 03:26:28;;;;;;;3.83;2.10;;;;;;;13.61;61.77;100403.50;5080220;28;20134;-65
2023/03/30 03:28:53;;;;;;;4.93;2.22;;;;;;;13.61;61.96;100398.75;5052710;28;20465;-65
2023/03/30 03:31:18;;;;;;;4.07;1.92;;;;;;;13.62;62.08;100407.97;5050161;28;20116;-66
2023/03/30 03:33:44;;;;;;;5.95;1.90;;;;;;;13.60;61.61;100407.41;5048897;28;20032;-65
2023/03/30 03:36:10;;;;;;;5.40;2.47;;;;;;;13.62;61.55;100402.38;5049776;28;20032;-65
2023/03/30 03:38:36;;;;;;;5.78;2.30;;;;;;;13.61;61.54;100406.28;5049869;28;20067;-64
2023/03/30 03:41:01;;;;;;;5.47;2.35;;;;;;;13.63;61.31;100393.72;5050534;28;20036;-65
2023/03/30 03:43:27;;;;;;;6.55;2.13;;;;;;;13.63;61.69;100404.03;5089457;28;20111;-65
2023/03/30 03:45:52;;;;;;;3.55;1.90;;;;;;;13.64;61.54;100389.81;5067767;28;20063;-65
2023/03/30 03:48:20;;;;;;;7.63;2.60;;;;;;;13.64;61.18;100389.81;5068712;28;20029;-66
2023/03/30 03:50:50;;;;;;;5.05;1.92;;;;;;;13.61;61.17;100395.13;5069877;28;20067;-65
2023/03/30 03:53:16;;;;;;;4.75;1.83;;;;;;;13.62;61.20;100391.22;5069570;28;20060;-65
2023/03/30 03:55:41;;;;;;;4.50;2.22;;;;;;;13.62;61.23;100396.81;5069074;28;20067;-65
2023/03/30 03:58:07;;;;;;;3.88;2.10;;;;;;;13.63;61.40;100388.13;5069849;28;20116;-65
2023/03/30 04:00:33;;;;;;;3.17;2.08;;;;;;;13.65;60.98;100385.09;5083163;28;20043;-65
2023/03/30 04:02:58;;;;;;;4.45;1.65;;;;;;;13.63;60.97;100388.13;5057747;28;20032;-65
2023/03/30 04:05:24;;;;;;;4.15;2.10;;;;;;;13.65;60.93;100396.25;5070032;28;20020;-65
2023/03/30 04:07:52;;;;;;;4.53;2.33;;;;;;;13.65;60.71;100390.66;5069787;28;20391;-65
2023/03/30 04:10:18;;;;;;;6.10;2.28;;;;;;;13.65;60.94;100387.88;5068641;28;20039;-65
2023/03/30 04:12:43;;;;;;;3.17;2.00;;;;;;;13.66;61.38;100382.00;5061525;28;20041;-69
2023/03/30 04:15:11;;;;;;;5.43;2.03;;;;;;;13.65;61.29;100380.34;5054933;28;20115;-65
2023/03/30 04:17:37;;;;;;;6.38;2.20;;;;;;;13.65;61.84;100374.75;5056487;28;20033;-65
2023/03/30 04:20:04;;;;;;;5.95;1.75;;;;;;;13.63;61.91;100365.81;5065761;28;20024;-66
2023/03/30 04:22:40;;;;;;;4.95;1.80;;;;;;;13.60;62.11;100372.00;5068734;28;20115;-65
2023/03/30 04:25:07;;;;;;;5.38;2.38;;;;;;;13.57;61.46;100367.00;5084889;28;20024;-66
2023/03/30 04:27:32;;;;;;;5.72;2.08;;;;;;;13.59;62.38;100375.06;5089363;28;20039;-66
2023/03/30 04:29:58;;;;;;;6.95;2.40;;;;;;;13.57;61.98;100364.19;5088947;28;20032;-65
2023/03/30 04:32:23;;;;;;;6.60;2.30;;;;;;;13.56;62.08;100372.81;5087142;28;20021;-64
2023/03/30 04:34:53;;;;;;;5.47;2.08;;;;;;;13.55;62.03;100358.06;5084492;28;20520;-65
2023/03/30 04:37:22;;;;;;;5.30;2.28;;;;;;;13.56;61.92;100350.53;5068675;28;20039;-66
2023/03/30 04:39:49;;;;;;;7.88;2.30;;;;;;;13.54;62.51;100353.59;5068387;28;20108;-65
2023/03/30 04:42:18;;;;;;;7.05;2.17;;;;;;;13.52;62.38;100353.06;5048092;28;20036;-64
2023/03/30 04:44:44;;;;;;;7.45;2.15;;;;;;;13.54;62.32;100352.78;5059717;28;20527;-65
2023/03/30 04:47:09;;;;;;;9.48;2.30;;;;;;;13.50;62.49;100350.56;5072175;28;20128;-67
2023/03/30 04:49:35;;;;;;;5.50;2.30;;;;;;;13.52;62.28;100347.50;5072473;28;20028;-65
2023/03/30 04:52:00;;;;;;;4.68;2.28;;;;;;;13.52;62.54;100344.72;5070638;28;20046;-66
2023/03/30 04:54:25;;;;;;;5.00;1.90;;;;;;;13.53;62.82;100348.31;5069797;28;20028;-66
2023/03/30 04:56:50;;;;;;;6.32;2.15;;;;;;;13.47;62.51;100348.31;5070636;28;20050;-64
2023/03/30 04:59:16;;;;;;;5.57;2.15;;;;;;;13.48;62.41;100355.59;5058989;28;20029;-66
2023/03/30 05:01:41;;;;;;;5.03;1.95;;;;;;;13.45;62.09;100361.72;5062521;28;20032;-65
2023/03/30 05:04:07;;;;;;;6.50;2.10;;;;;;;13.41;61.97;100360.63;5074130;28;20052;-66
2023/03/30 05:06:33;;;;;;;5.60;2.03;;;;;;;13.42;62.84;100365.09;5078210;28;20471;-66
2023/03/30 05:08:58;;;;;;;5.78;2.20;;;;;;;13.41;63.18;100377.34;5081336;28;20037;-65
2023/03/30 05:11:26;;;;;;;6.32;2.22;;;;;;;13.40;64.48;100399.94;5072423;28;20118;-64
2023/03/30 05:13:53;;;;;;;5.18;2.10;;;;;;;13.42;64.98;100404.09;5071856;28;20106;-65
2023/03/30 05:16:18;;;;;;;7.70;2.58;;;;;;;13.43;66.51;100393.78;5072181;28;20036;-65
2023/03/30 05:18:44;;;;;;;5.03;2.92;;;;;;;13.41;66.87;100402.44;5071835;28;20757;-65
2023/03/30 05:21:09;;;;;;;6.60;2.83;;;;;;;13.38;67.88;100402.19;5071874;28;20044;-65
2023/03/30 05:23:35;;;;;;;6.70;3.20;;;;;;;13.34;69.57;100413.06;5080569;28;20060;-66
2023/03/30 05:26:02;;;;;;;8.93;3.50;;;;;;;13.32;69.96;100411.66;5068856;28;20071;-66
2023/03/30 05:28:27;;;;;;;4.70;2.75;;;;;;;13.31;70.10;100410.00;5072623;28;20060;-65
2023/03/30 05:30:54;;;;;;;7.60;2.83;;;;;;;13.29;70.72;100413.06;5072215;28;20439;-65
2023/03/30 05:33:20;;;;;;;8.02;3.10;;;;;;;13.22;71.24;100423.63;5071216;28;20488;-65
2023/03/30 05:35:46;;;;;;;6.22;2.95;;;;;;;13.21;71.72;100425.59;5072593;28;20365;-66
2023/03/30 05:38:11;;;;;;;5.30;3.10;;;;;;;13.23;71.72;100422.56;5070063;28;20025;-65
2023/03/30 05:40:36;;;;;;;9.02;3.88;;;;;;;13.19;71.97;100426.97;5084798;28;20135;-66
2023/03/30 05:43:02;;;;;;;4.43;2.75;;;;;;;13.15;72.36;100425.88;5084509;28;20123;-66
2023/03/30 05:45:27;;;;;;;6.60;3.30;;;;;;;13.12;72.79;100432.00;5052048;28;20782;-65
2023/03/30 05:48:01;;;;;;;7.47;3.08;;;;;;;13.02;73.52;100425.34;5051037;28;20033;-64
2023/03/30 05:50:26;;;;;;;5.75;2.63;;;;;;;13.02;73.72;100418.94;5052082;28;20040;-65
2023/03/30 05:52:52;;;;;;;7.05;2.83;;;;;;;12.97;73.74;100410.59;5054854;28;20036;-65
2023/03/30 05:55:20;;;;;;;10.30;2.58;;;;;;;12.98;73.15;100415.88;5075226;28;20056;-66
2023/03/30 05:57:45;;;;;;;6.25;2.30;;;;;;;12.93;73.75;100421.44;5068138;28;20537;-65
2023/03/30 06:00:12;;;;;;;8.45;2.58;;;;;;;12.96;73.73;100433.97;5069602;28;20032;-65
2023/03/30 06:02:38;;;;;;;9.25;3.03;;;;;;;12.98;73.46;100443.72;5061792;28;20427;-66
2023/03/30 06:05:04;;;;;;;7.68;2.78;;;;;;;12.96;73.81;100437.59;5071345;28;20023;-65
2023/03/30 06:07:30;;;;;;;7.97;2.72;;;;;;;12.97;74.01;100441.22;5071750;28;20043;-65
2023/03/30 06:09:58;;;;;;;11.65;3.60;;;;;;;12.96;74.43;100436.75;5072060;28;20028;-65
2023/03/30 06:12:23;;;;;;;10.65;3.30;;;;;;;12.90;74.87;100444.28;5070947;28;20503;-67
2023/03/30 06:14:48;;;;;;;8.50;3.25;;;;;;;12.89;74.25;100439.84;5071742;28;20040;-65
2023/03/30 06:17:14;;;;;;;5.97;2.90;;;;;;;12.89;74.21;100442.63;5067977;28;20074;-67
2023/03/30 06:19:40;;;;;;;8.95;2.90;;;;;;;12.88;74.38;100440.94;5071898;28;20058;-66
2023/03/30 06:22:05;;;;;;;7.07;2.78;;;;;;;12.85;74.36;100447.09;5071564;28;20093;-65
2023/03/30 06:24:31;;;;;;;7.28;3.00;;;;;;;12.84;74.31;100447.34;5076241;28;20040;-65
2023/03/30 06:26:57;;;;;;;9.63;3.03;;;;;;;12.82;74.43;100446.81;5084047;28;20023;-66
2023/03/30 06:29:22;;;;;;;7.18;2.70;;;;;;;12.80;74.65;100458.19;5090168;28;20085;-67
2023/03/30 06:31:50;;;;;;;9.18;3.25;;;;;;;12.71;74.14;100455.13;5062857;28;20033;-68
2023/03/30 06:34:15;;;;;;;11.30;3.50;;;;;;;12.72;74.74;100455.97;5052270;28;20439;-67
2023/03/30 06:36:41;;;;;;;9.48;3.05;;;;;;;12.66;74.96;100469.06;5063948;28;20021;-66
2023/03/30 06:39:06;;;;;;;9.75;3.17;;;;;;;12.68;74.78;100460.41;5060601;28;20032;-66
2023/03/30 06:41:31;;;;;;;9.18;3.35;;;;;;;12.69;74.85;100456.50;5058896;28;20361;-68
2023/03/30 06:43:57;;;;;;;11.35;3.05;;;;;;;12.72;74.76;100456.81;5047416;28;20049;-68
2023/03/30 06:46:22;;;;;;;9.63;3.05;;;;;;;12.78;75.10;100468.81;5052693;28;20024;-66
2023/03/30 06:48:47;;;;;;;9.85;3.13;;;;;;;12.77;75.08;100462.41;5070435;28;20141;-66
2023/03/30 06:51:13;;;;;;;9.45;2.90;;;;;;;12.85;74.81;100466.59;5068108;28;20530;-68
2023/03/30 06:53:39;;;;;;;7.97;3.28;;;;;;;12.89;74.94;100462.13;5070934;28;20078;-66
2023/03/30 06:56:06;;;;;;;10.15;2.95;;;;;;;12.92;74.69;100457.94;5069933;28;20031;-66
2023/03/30 06:58:34;;;;;;;9.52;2.85;;;;;;;13.02;74.66;100461.56;5054152;28;20482;-67
2023/03/30 07:01:14;;;;;;;9.73;2.78;;;;;;;13.10;74.32;100462.13;5067435;28;20025;-67
2023/03/30 07:03:40;;;;;;;10.93;3.40;;;;;;;13.10;73.76;100471.31;5058198;28;20528;-68
2023/03/30 07:06:07;;;;;;;7.63;2.63;;;;;;;13.15;73.76;100464.88;5049578;28;20032;-67
2023/03/30 07:08:34;;;;;;;11.65;3.03;;;;;;;13.18;73.37;100475.47;5058088;28;20021;-69
2023/03/30 07:11:00;;;;;;;12.65;2.67;;;;;;;13.19;73.34;100477.97;5063647;28;20051;-69
2023/03/30 07:13:26;;;;;;;10.10;2.72;;;;;;;13.18;73.41;100465.16;5063404;28;20024;-71
2023/03/30 07:15:52;;;;;;;8.20;2.78;;;;;;;13.24;73.24;100477.16;5059894;28;20090;-68
2023/03/30 07:18:17;;;;;;;7.68;2.67;;;;;;;13.31;73.31;100465.75;5054888;28;20024;-70
2023/03/30 07:20:43;;;;;;;8.10;2.67;;;;;;;13.34;73.03;100471.59;5059607;28;20029;-71
2023/03/30 07:23:10;;;;;;;10.02;2.70;;;;;;;13.35;73.10;100473.25;5076820;28;20155;-71
2023/03/30 07:25:36;;;;;;;8.02;2.50;;;;;;;13.31;73.32;100479.69;5064134;28;20541;-71
2023/03/30 07:28:05;;;;;;;10.00;2.90;;;;;;;13.35;72.83;100476.03;5059015;28;20079;-68
2023/03/30 07:30:33;;;;;;;7.25;2.28;;;;;;;13.41;72.62;100479.69;5074500;28;20036;-71
2023/03/30 07:32:59;;;;;;;9.73;2.47;;;;;;;13.38;72.65;100480.22;5061642;28;20029;-66
2023/03/30 07:35:25;;;;;;;11.55;2.80;;;;;;;13.40;72.33;100486.34;5060227;28;20034;-66
2023/03/30 07:37:50;;;;;;;9.82;2.72;;;;;;;13.37;72.76;100476.63;5058173;28;20097;-67
2023/03/30 07:40:16;;;;;;;12.00;2.78;;;;;;;13.36;72.23;100477.75;5051656;28;20048;-67
2023/03/30 07:42:42;;;;;;;9.18;2.45;;;;;;;13.36;71.66;100491.69;5068762;28;20035;-67
2023/03/30 07:45:08;;;;;;;11.60;2.53;;;;;;;13.36;72.19;100488.88;5089911;28;20028;-69
2023/03/30 07:47:34;;;;;;;11.63;2.90;;;;;;;13.38;72.09;100497.78;5078575;28;20028;-67
2023/03/30 07:50:02;;;;;;;16.70;3.70;;;;;;;13.36;71.98;100504.75;5068182;28;20471;-67
2023/03/30 07:52:27;;;;;;;10.48;3.60;;;;;;;13.37;72.26;100498.09;5070634;28;20484;-68
2023/03/30 07:54:53;;;;;;;18.63;3.22;;;;;;;13.41;72.47;100505.59;5060809;28;20039;-69
2023/03/30 07:57:22;;;;;;;8.70;2.90;;;;;;;13.44;72.36;100515.34;5068532;28;20036;-68
2023/03/30 07:59:47;;;;;;;10.95;2.67;;;;;;;13.46;72.18;100511.16;5064941;28;20112;-71
2023/03/30 08:02:13;;;;;;;10.48;3.08;;;;;;;13.51;71.74;100507.53;5056023;28;20121;-67
2023/03/30 08:04:45;;;;;;;11.32;2.80;;;;;;;13.50;71.30;100517.84;5069573;28;20086;-67
2023/03/30 08:07:11;;;;;;;9.02;3.28;;;;;;;13.53;71.04;100522.03;5076956;28;20064;-67
2023/03/30 08:09:37;;;;;;;8.50;2.65;;;;;;;13.53;70.20;100521.19;5088235;28;20042;-66
2023/03/30 08:12:02;;;;;;;8.82;3.03;;;;;;;13.55;70.73;100524.53;5089806;28;20494;-67
2023/03/30 08:14:28;;;;;;;11.57;2.85;;;;;;;13.54;70.42;100525.66;5089167;28;20042;-67
2023/03/30 08:16:54;;;;;;;16.60;3.22;;;;;;;13.56;71.15;100529.84;5088007;28;20028;-66
2023/03/30 08:19:20;;;;;;;10.52;3.60;;;;;;;13.57;70.61;100534.28;5089093;28;20024;-68
2023/03/30 08:21:46;;;;;;;13.73;3.00;;;;;;;13.56;70.36;100531.78;5079410;28;20115;-66
2023/03/30 08:24:11;;;;;;;10.48;3.65;;;;;;;13.55;70.01;100535.69;5072966;28;20103;-68
2023/03/30 08:26:37;;;;;;;16.15;3.17;;;;;;;13.50;69.67;100537.34;5073125;28;20131;-67
2023/03/30 08:29:02;;;;;;;13.32;2.70;;;;;;;13.50;69.07;100539.31;5072026;28;20066;-67
2023/03/30 08:31:31;;;;;;;13.38;3.22;;;;;;;13.54;69.26;100551.59;5072911;28;20041;-67
2023/03/30 08:33:57;;;;;;;14.48;2.80;;;;;;;13.48;67.48;100533.19;5072943;28;20028;-67
2023/03/30 08:36:23;;;;;;;14.10;3.45;;;;;;;13.51;67.99;100547.38;5076339;28;20039;-68
2023/03/30 08:38:48;;;;;;;17.83;3.92;;;;;;;13.61;67.60;100534.56;5080340;28;20748;-67
2023/03/30 08:41:16;;;;;;;11.10;3.35;;;;;;;13.74;67.76;100537.59;5072822;28;20115;-68
2023/03/30 08:43:51;;;;;;;13.27;3.17;;;;;;;13.95;66.88;100524.47;5072154;28;20024;-67
2023/03/30 08:46:18;;;;;;;17.42;3.55;;;;;;;14.15;66.05;100536.69;5072851;28;20057;-68
2023/03/30 08:48:45;;;;;;;14.50;3.20;;;;;;;14.23;66.00;100536.91;5072345;28;20028;-67
2023/03/30 08:51:23;;;;;;;15.00;3.00;;;;;;;14.40;65.98;100535.72;5072041;28;20836;-68
2023/03/30 08:54:00;;;;;;;13.25;3.00;;;;;;;14.55;65.16;100535.69;5080646;28;20050;-67
2023/03/30 08:56:44;;;;;;;14.57;3.40;;;;;;;14.58;63.93;100542.63;5081735;28;20028;-68
2023/03/30 08:59:27;;;;;;;14.73;3.40;;;;;;;14.62;64.11;100536.22;5092732;28;20028;-67
2023/03/30 09:02:14;;;;;;;12.32;2.75;;;;;;;14.66;63.86;100534.50;5073537;28;20032;-68
2023/03/30 09:05:06;;;;;;;15.20;3.20;;;;;;;14.76;63.46;100536.38;5072951;28;20045;-67
2023/03/30 09:07:42;;;;;;;15.10;2.85;;;;;;;14.83;62.58;100528.53;5089566;28;20490;-68
2023/03/30 09:10:12;;;;;;;11.82;3.40;;;;;;;14.81;61.09;100543.91;5090294;28;20020;-66
2023/03/30 09:12:55;;;;;;;14.32;3.10;;;;;;;14.71;61.01;100540.06;5065465;28;20076;-67
2023/03/30 09:15:27;;;;;;;;;;;;;;;14.79;63.47;100543.38;5072327;28;20079;-68
2023/03/30 09:18:12;;;;;;;15.57;3.30;;;;;;;14.64;61.89;100569.44;5071473;28;19912;-67
2023/03/30 09:20:42;;;;;;;12.57;3.10;;;;;;;14.55;61.19;100555.22;5071546;28;20059;-68
2023/03/30 09:23:14;;;;;;;17.95;3.58;;;;;;;14.49;61.51;100557.19;5071624;28;20128;-67
2023/03/30 09:25:54;;;;;;;;;;;;;;;14.56;63.27;100567.22;5081995;28;20016;-66
2023/03/30 09:28:44;;;;;;;18.63;3.72;;;;;;;14.41;61.70;100577.31;5067907;28;20015;-68
2023/03/30 09:31:21;;;;;;;17.95;3.78;;;;;;;14.40;61.92;100578.44;5071760;28;20054;-68
2023/03/30 09:33:52;;;;;;;16.30;3.72;;;;;;;14.51;61.59;100581.22;5071776;28;20051;-68
2023/03/30 09:36:33;;;;;;;19.52;3.97;;;;;;;14.72;61.36;100577.19;5065461;28;20028;-69
2023/03/30 09:38:58;;;;;;;16.05;3.83;;;;;;;14.87;60.68;100573.50;5071061;28;20033;-67
2023/03/30 09:42:00;;;;;;;16.65;4.18;;;;;;;14.97;60.77;100574.28;5071153;28;20029;-67
2023/03/30 09:44:34;;;;;;;13.80;3.70;;;;;;;15.08;59.50;100574.19;5077520;28;20119;-68
2023/03/30 09:47:01;;;;;;;14.82;3.75;;;;;;;15.10;58.61;100585.94;5088872;28;20108;-67
2023/03/30 09:49:28;;;;;;;20.58;4.68;;;;;;;15.16;58.96;100580.00;5091947;28;20055;-68
2023/03/30 09:51:55;;;;;;;13.65;3.75;;;;;;;15.22;59.27;100592.00;5087881;28;20028;-67
2023/03/30 09:54:22;;;;;;;15.43;3.63;;;;;;;15.18;58.76;100588.94;5068477;28;20063;-68
2023/03/30 09:56:50;;;;;;;20.13;3.90;;;;;;;15.14;59.04;100599.03;5062933;28;20078;-68
2023/03/30 09:59:33;;;;;;;14.27;3.72;;;;;;;15.08;59.73;100588.16;5067343;28;20540;-63
2023/03/30 10:02:11;;;;;;;14.35;3.58;;;;;;;15.00;59.55;100591.56;5059110;28;20051;-69
2023/03/30 10:05:01;;;;;;;16.52;4.25;;;;;;;14.96;59.68;100617.28;5074196;28;20033;-67
2023/03/30 10:07:39;;;;;;;18.55;4.38;;;;;;;14.88;59.33;100603.94;5062368;28;20376;-67
2023/03/30 10:10:24;;;;;;;16.52;3.55;;;;;;;14.84;59.48;100613.19;5054626;28;20028;-68
2023/03/30 10:12:53;;;;;;;16.60;4.00;;;;;;;14.78;58.32;100605.97;5085679;28;20051;-67
2023/03/30 10:15:22;;;;;;;17.85;3.40;;;;;;;14.72;58.40;100600.38;5067737;28;20030;-68
2023/03/30 10:17:50;;;;;;;17.83;4.05;;;;;;;14.70;58.55;100610.19;5073882;28;20064;-67
2023/03/30 10:20:25;;;;;;;16.75;4.55;;;;;;;14.70;59.48;100613.81;5068531;28;20035;-69
2023/03/30 10:22:58;;;;;;;19.25;4.57;;;;;;;14.83;60.03;100608.72;5070317;28;20040;-68
2023/03/30 10:25:27;;;;;;;14.60;3.30;;;;;;;14.91;59.76;100614.53;5066191;28;20527;-68
2023/03/30 10:27:56;;;;;;;13.27;3.38;;;;;;;14.95;59.52;100615.63;5061026;28;20040;-68
2023/03/30 10:30:27;;;;;;;21.88;4.50;;;;;;;14.94;58.97;100616.75;5060324;28;20054;-69
2023/03/30 10:32:56;;;;;;;19.80;4.65;;;;;;;14.91;59.54;100611.75;5070319;28;20028;-66
2023/03/30 10:35:25;;;;;;;15.20;4.10;;;;;;;14.86;59.39;100602.56;5081070;28;20032;-67
2023/03/30 10:37:58;;;;;;;19.80;4.15;;;;;;;14.85;58.96;100604.50;5074847;28;20476;-72
2023/03/30 10:40:37;;;;;;;20.77;4.65;;;;;;;14.87;58.63;100599.47;5069483;28;20033;-70
2023/03/30 10:43:08;;;;;;;18.20;4.20;;;;;;;14.89;58.34;100608.38;5064626;28;20145;-69
2023/03/30 10:45:39;;;;;;;17.92;3.55;;;;;;;15.01;58.34;100604.41;5060241;28;20029;-69
2023/03/30 10:48:16;;;;;;;18.20;3.80;;;;;;;15.12;58.42;100611.63;5068263;28;20032;-67
2023/03/30 10:51:16;;;;;;;18.75;3.85;;;;;;;15.20;58.52;100608.22;5065260;28;20059;-69
2023/03/30 10:54:00;;;;;;;21.30;3.80;;;;;;;15.26;58.90;100611.81;5063075;28;20028;-70
2023/03/30 10:56:38;;;;;;;17.70;4.13;;;;;;;15.34;58.00;100614.00;5052265;28;20166;-70
2023/03/30 10:59:23;;;;;;;19.48;4.03;;;;;;;15.40;57.05;100602.47;5062291;28;20065;-69
2023/03/30 11:02:22;;;;;;;20.48;4.18;;;;;;;15.40;57.40;100605.25;5060264;28;20446;-70
2023/03/30 11:05:04;;;;;;;14.43;4.13;;;;;;;15.44;57.24;100611.09;5055826;28;20032;-68
2023/03/30 11:07:39;;;;;;;15.27;4.15;;;;;;;15.37;56.74;100616.22;5058342;28;20055;-71
2023/03/30 11:10:14;;;;;;;16.48;4.07;;;;;;;15.27;56.92;100616.28;5066586;28;20032;-71
2023/03/30 11:12:44;;;;;;;17.38;3.83;;;;;;;15.31;57.37;100612.59;5061267;28;20080;-70
2023/03/30 11:15:28;;;;;;;13.30;3.10;;;;;;;15.47;58.20;100597.38;5070119;28;20040;-70
2023/03/30 11:18:32;;;;;;;14.02;3.40;;;;;;;15.65;57.51;100606.22;5068480;28;20477;-68
2023/03/30 11:21:04;;;;;;;15.90;3.40;;;;;;;15.74;56.76;100598.03;5039824;28;20110;-71
2023/03/30 11:23:35;;;;;;;13.98;3.83;;;;;;;15.73;56.53;100596.38;5062910;28;20052;-73
2023/03/30 11:26:11;;;;;;;13.63;3.38;;;;;;;15.68;56.13;100600.88;5067169;28;20079;-72
2023/03/30 11:28:57;;;;;;;14.93;3.42;;;;;;;15.66;57.33;100605.09;5089024;28;20028;-67
2023/03/30 11:31:44;;;;;;;14.18;3.53;;;;;;;15.62;57.30;100609.56;5070780;28;20036;-67
2023/03/30 11:34:42;;;;;;;19.80;4.25;;;;;;;15.57;57.08;100609.63;5071925;28;20043;-71
2023/03/30 11:37:34;;;;;;;14.45;3.75;;;;;;;15.47;57.07;100597.38;5061297;28;20024;-70